createdAt,value
2017-11-01T00:00:06.700Z,8.20
2017-11-01T00:02:35.587Z,8.27
2017-11-01T00:05:04.438Z,8.70
2017-11-01T00:07:33.330Z,7.60
2017-11-01T00:10:02.192Z,7.50
2017-11-01T00:12:31.072Z,7.93
2017-11-01T00:14:59.963Z,6.53
2017-11-01T00:17:28.878Z,9.00
2017-11-01T00:19:57.727Z,8.97
2017-11-01T00:22:26.590Z,8.33
2017-11-01T00:24:55.469Z,8.43
2017-11-01T00:27:24.319Z,8.17
2017-11-01T00:29:53.226Z,8.27
2017-11-01T00:32:22.076Z,7.13
2017-11-01T00:34:50.961Z,6.43
2017-11-01T00:37:19.827Z,7.00
2017-11-01T00:39:48.727Z,6.93
2017-11-01T00:42:18.528Z,5.80
2017-11-01T00:44:47.381Z,6.80
2017-11-01T00:47:16.256Z,6.20
2017-11-01T00:49:45.117Z,5.90
2017-11-01T00:52:14.001Z,7.23
2017-11-01T00:54:42.856Z,6.07
2017-11-01T00:57:11.758Z,6.97
2017-11-01T00:59:40.616Z,5.90
2017-11-01T01:02:09.655Z,6.70
2017-11-01T01:04:38.509Z,6.20
2017-11-01T01:07:07.396Z,6.33
2017-11-01T01:09:36.267Z,5.43
2017-11-01T01:12:05.115Z,6.13
2017-11-01T01:14:33.987Z,6.20
2017-11-01T01:17:02.854Z,6.10
2017-11-01T01:19:31.722Z,6.23
2017-11-01T01:22:00.607Z,6.20
2017-11-01T01:24:29.479Z,5.50
2017-11-01T01:26:58.404Z,5.70
2017-11-01T01:29:27.270Z,5.63
2017-11-01T01:31:56.141Z,5.80
2017-11-01T01:34:24.986Z,4.67
2017-11-01T01:36:53.845Z,5.00
2017-11-01T01:39:22.700Z,5.90
2017-11-01T01:41:51.581Z,6.40
2017-11-01T01:44:20.437Z,6.30
2017-11-01T01:46:49.303Z,5.47
2017-11-01T01:49:18.163Z,5.90
2017-11-01T01:51:47.057Z,5.73
2017-11-01T01:54:15.932Z,5.50
2017-11-01T01:56:44.807Z,5.43
2017-11-01T01:59:13.683Z,5.87
2017-11-01T02:01:42.574Z,6.90
2017-11-01T02:04:11.442Z,5.60
2017-11-01T02:06:40.287Z,6.20
2017-11-01T02:09:09.154Z,5.77
2017-11-01T02:11:38.042Z,6.37
2017-11-01T02:14:06.928Z,6.07
2017-11-01T02:16:35.806Z,6.63
2017-11-01T02:19:04.662Z,6.77
2017-11-01T02:21:33.539Z,7.40
2017-11-01T02:24:02.391Z,6.30
2017-11-01T02:26:31.263Z,7.10
2017-11-01T02:29:00.116Z,7.30
2017-11-01T02:31:29.003Z,6.20
2017-11-01T02:33:57.924Z,5.50
2017-11-01T02:36:26.826Z,6.67
2017-11-01T02:38:55.684Z,6.50
2017-11-01T02:41:24.547Z,6.67
2017-11-01T02:43:53.464Z,6.30
2017-11-01T02:46:22.339Z,5.20
2017-11-01T02:48:51.225Z,6.40
2017-11-01T02:51:20.083Z,6.57
2017-11-01T02:53:48.968Z,5.40
2017-11-01T02:56:17.827Z,6.20
2017-11-01T02:58:46.779Z,6.60
2017-11-01T03:01:15.698Z,6.13
2017-11-01T03:03:44.571Z,6.27
2017-11-01T03:06:13.435Z,5.53
2017-11-01T03:08:42.310Z,5.37
2017-11-01T03:11:11.191Z,5.93
2017-11-01T03:13:40.043Z,4.70
2017-11-01T03:16:08.918Z,5.50
2017-11-01T03:18:37.782Z,5.43
2017-11-01T03:21:06.678Z,5.23
2017-11-01T03:23:35.526Z,4.90
2017-11-01T03:26:04.394Z,5.67
2017-11-01T03:28:33.271Z,4.87
2017-11-01T03:31:02.168Z,4.60
2017-11-01T03:33:31.049Z,5.00
2017-11-01T03:35:59.914Z,4.20
2017-11-01T03:38:28.786Z,4.90
2017-11-01T03:40:57.643Z,4.20
2017-11-01T03:43:26.533Z,4.77
2017-11-01T03:46:02.151Z,5.80
2017-11-01T03:48:31.259Z,4.33
2017-11-01T03:51:00.110Z,4.30
2017-11-01T03:53:28.966Z,4.23
2017-11-01T03:55:57.827Z,4.90
2017-11-01T03:58:26.669Z,4.23
2017-11-01T04:00:55.591Z,4.00
2017-11-01T04:03:24.446Z,4.60
2017-11-01T04:05:53.315Z,3.90
2017-11-01T04:08:22.174Z,4.20
2017-11-01T04:10:51.295Z,4.23
2017-11-01T04:13:20.159Z,3.57
2017-11-01T04:15:49.008Z,4.13
2017-11-01T04:18:20.854Z,4.63
2017-11-01T04:20:52.440Z,3.83
2017-11-01T04:23:21.342Z,4.90
2017-11-01T04:25:50.204Z,4.10
2017-11-01T04:28:19.100Z,4.37
2017-11-01T04:30:47.964Z,4.23
2017-11-01T04:33:16.951Z,4.10
2017-11-01T04:35:45.811Z,3.10
2017-11-01T04:38:14.704Z,3.93
2017-11-01T04:40:43.551Z,4.03
2017-11-01T04:43:12.402Z,3.47
2017-11-01T04:45:41.278Z,3.83
2017-11-01T04:48:12.962Z,3.50
2017-11-01T04:50:41.837Z,4.17
2017-11-01T04:53:10.697Z,3.80
2017-11-01T04:55:42.455Z,3.73
2017-11-01T04:58:11.347Z,3.90
2017-11-01T05:00:42.963Z,3.67
2017-11-01T05:03:11.826Z,4.60
2017-11-01T05:05:40.698Z,4.60
2017-11-01T05:08:15.246Z,3.77
2017-11-01T05:10:44.127Z,4.40
2017-11-01T05:13:18.667Z,3.60
2017-11-01T05:15:47.561Z,3.50
2017-11-01T05:18:16.440Z,3.80
2017-11-01T05:20:45.294Z,3.90
2017-11-01T05:23:14.970Z,4.50
2017-11-01T05:25:46.762Z,4.00
2017-11-01T05:28:15.629Z,3.50
2017-11-01T05:30:44.483Z,3.63
2017-11-01T05:33:13.355Z,3.67
2017-11-01T05:35:42.198Z,4.20
2017-11-01T05:38:11.255Z,4.00
2017-11-01T05:40:40.113Z,3.43
2017-11-01T05:43:08.957Z,3.63
2017-11-01T05:45:37.840Z,3.57
2017-11-01T05:48:06.698Z,3.20
2017-11-01T05:50:35.563Z,3.40
2017-11-01T05:53:04.429Z,4.73
2017-11-01T05:55:33.318Z,3.80
2017-11-01T05:58:02.171Z,4.80
2017-11-01T06:00:31.042Z,4.00
2017-11-01T06:02:59.953Z,5.13
2017-11-01T06:05:28.822Z,3.40
2017-11-01T06:07:57.686Z,4.00
2017-11-01T06:10:26.578Z,4.43
2017-11-01T06:12:55.430Z,4.10
2017-11-01T06:15:24.345Z,4.90
2017-11-01T06:17:53.198Z,4.00
2017-11-01T06:20:22.053Z,4.40
2017-11-01T06:22:50.924Z,4.57
2017-11-01T06:25:19.793Z,4.00
2017-11-01T06:27:48.663Z,4.27
2017-11-01T06:30:17.524Z,4.53
2017-11-01T06:32:46.437Z,4.90
2017-11-01T06:35:15.284Z,4.80
2017-11-01T06:37:44.214Z,4.22
2017-11-01T06:40:13.060Z,4.43
2017-11-01T06:42:41.919Z,4.60
2017-11-01T06:45:10.805Z,4.00
2017-11-01T06:47:39.654Z,4.70
2017-11-01T06:50:08.520Z,4.10
2017-11-01T06:52:37.362Z,4.77
2017-11-01T06:55:06.223Z,5.10
2017-11-01T06:57:35.114Z,3.83
2017-11-01T07:00:04.022Z,4.53
2017-11-01T07:02:32.866Z,4.70
2017-11-01T07:05:01.728Z,4.60
2017-11-01T07:07:30.636Z,4.80
2017-11-01T07:09:59.494Z,5.07
2017-11-01T07:12:28.363Z,4.03
2017-11-01T07:14:57.230Z,4.63
2017-11-01T07:17:26.094Z,3.97
2017-11-01T07:19:54.950Z,4.70
2017-11-01T07:22:23.910Z,4.90
2017-11-01T07:24:52.762Z,4.70
2017-11-01T07:27:21.637Z,4.43
2017-11-01T07:29:50.531Z,4.83
2017-11-01T07:32:19.421Z,4.33
2017-11-01T07:34:48.311Z,4.93
2017-11-01T07:37:17.175Z,4.50
2017-11-01T07:39:46.046Z,4.30
2017-11-01T07:42:14.897Z,3.83
2017-11-01T07:44:43.790Z,5.20
2017-11-01T07:47:12.663Z,4.80
2017-11-01T07:49:41.570Z,5.10
2017-11-01T07:52:10.425Z,4.73
2017-11-01T07:54:39.283Z,4.40
2017-11-01T07:57:08.135Z,5.57
2017-11-01T07:59:36.988Z,4.87
2017-11-01T08:02:05.878Z,5.30
2017-11-01T08:04:34.749Z,4.53
2017-11-01T08:07:03.693Z,4.70
2017-11-01T08:09:32.544Z,4.60
2017-11-01T08:12:01.399Z,4.90
2017-11-01T08:14:30.266Z,4.67
2017-11-01T08:16:59.138Z,4.50
2017-11-01T08:19:28.015Z,4.00
2017-11-01T08:21:56.888Z,4.27
2017-11-01T08:24:25.768Z,4.40
2017-11-01T08:26:54.615Z,4.00
2017-11-01T08:29:23.910Z,3.30
2017-11-01T08:31:52.768Z,4.13
2017-11-01T08:34:21.642Z,4.30
2017-11-01T08:36:50.544Z,4.40
2017-11-01T08:39:19.399Z,4.37
2017-11-01T08:41:48.269Z,4.40
2017-11-01T08:44:17.145Z,4.57
2017-11-01T08:46:46.033Z,4.40
2017-11-01T08:49:15.005Z,4.17
2017-11-01T08:51:44.020Z,4.20
2017-11-01T08:54:12.882Z,3.73
2017-11-01T08:56:41.798Z,4.20
2017-11-01T08:59:10.667Z,4.03
2017-11-01T09:01:39.557Z,4.97
2017-11-01T09:04:08.439Z,4.73
2017-11-01T09:06:37.740Z,3.80
2017-11-01T09:09:06.623Z,4.07
2017-11-01T09:11:35.472Z,4.90
2017-11-01T09:14:04.371Z,4.70
2017-11-01T09:16:33.218Z,4.53
2017-11-01T09:19:02.127Z,4.17
2017-11-01T09:21:31.038Z,4.50
2017-11-01T09:23:59.891Z,4.87
2017-11-01T09:26:28.848Z,4.57
2017-11-01T09:28:57.841Z,4.43
2017-11-01T09:31:26.710Z,5.47
2017-11-01T09:33:55.576Z,4.70
2017-11-01T09:36:24.471Z,4.60
2017-11-01T09:38:53.311Z,4.00
2017-11-01T09:41:22.205Z,4.43
2017-11-01T09:43:51.071Z,3.93
2017-11-01T09:46:19.923Z,3.57
2017-11-01T09:48:48.809Z,3.37
2017-11-01T09:51:17.681Z,3.77
2017-11-01T09:53:46.549Z,3.50
2017-11-01T09:56:15.399Z,4.87
2017-11-01T09:58:44.275Z,3.87
2017-11-01T10:01:13.120Z,3.43
2017-11-01T10:03:41.973Z,3.90
2017-11-01T10:06:10.842Z,3.67
2017-11-01T10:08:39.695Z,4.13
2017-11-01T10:11:08.577Z,4.10
2017-11-01T10:13:37.435Z,4.50
2017-11-01T10:16:06.368Z,3.00
2017-11-01T10:18:35.218Z,3.63
2017-11-01T10:21:04.573Z,3.83
2017-11-01T10:23:33.451Z,3.87
2017-11-01T10:26:02.932Z,4.43
2017-11-01T10:28:31.910Z,4.30
2017-11-01T10:31:00.814Z,3.70
2017-11-01T10:33:29.702Z,4.97
2017-11-01T10:35:58.546Z,4.20
2017-11-01T10:38:27.460Z,4.33
2017-11-01T10:40:56.310Z,4.27
2017-11-01T10:43:25.165Z,4.00
2017-11-01T10:45:54.035Z,4.57
2017-11-01T10:48:22.888Z,4.90
2017-11-01T10:50:51.792Z,4.33
2017-11-01T10:53:20.646Z,4.73
2017-11-01T10:55:49.507Z,4.60
2017-11-01T10:58:18.380Z,5.40
2017-11-01T11:00:47.341Z,4.60
2017-11-01T11:03:16.194Z,4.93
2017-11-01T11:05:45.052Z,4.90
2017-11-01T11:08:13.948Z,4.80
2017-11-01T11:10:42.913Z,4.63
2017-11-01T11:13:11.803Z,5.47
2017-11-01T11:15:40.651Z,4.80
2017-11-01T11:18:09.531Z,5.00
2017-11-01T11:20:38.394Z,5.90
2017-11-01T11:23:07.761Z,5.13
2017-11-01T11:25:36.653Z,6.57
2017-11-01T11:28:05.521Z,5.20
2017-11-01T11:30:34.437Z,5.70
2017-11-01T11:33:03.305Z,5.67
2017-11-01T11:35:32.207Z,5.63
2017-11-01T11:38:01.092Z,5.60
2017-11-01T11:40:30.018Z,6.37
2017-11-01T11:42:58.879Z,6.70
2017-11-01T11:45:27.786Z,6.37
2017-11-01T11:47:56.642Z,6.10
2017-11-01T11:50:25.547Z,6.87
2017-11-01T11:52:54.432Z,6.97
2017-11-01T11:55:23.283Z,5.97
2017-11-01T11:57:52.198Z,6.70
2017-11-01T12:00:21.076Z,6.10
2017-11-01T12:02:49.952Z,6.73
2017-11-01T12:05:18.811Z,5.13
2017-11-01T12:07:47.711Z,6.47
2017-11-01T12:10:16.559Z,7.00
2017-11-01T12:12:45.433Z,5.63
2017-11-01T12:15:14.286Z,7.10
2017-11-01T12:17:43.606Z,5.20
2017-11-01T12:20:12.448Z,6.10
2017-11-01T12:22:41.314Z,6.30
2017-11-01T12:25:10.178Z,6.30
2017-11-01T12:27:39.048Z,6.00
2017-11-01T12:30:07.919Z,6.10
2017-11-01T12:32:36.798Z,5.50
2017-11-01T12:35:05.657Z,5.20
2017-11-01T12:37:34.536Z,5.47
2017-11-01T12:40:03.399Z,5.30
2017-11-01T12:42:32.308Z,6.17
2017-11-01T12:45:01.174Z,5.60
2017-11-01T12:47:30.037Z,6.53
2017-11-01T12:49:58.911Z,5.53
2017-11-01T12:52:27.770Z,4.93
2017-11-01T12:54:56.642Z,5.37
2017-11-01T12:57:25.511Z,5.37
2017-11-01T12:59:54.402Z,6.43
2017-11-01T13:02:23.255Z,6.77
2017-11-01T13:04:52.167Z,5.90
2017-11-01T13:07:21.027Z,6.03
2017-11-01T13:09:50.093Z,6.60
2017-11-01T13:12:19.027Z,6.50
2017-11-01T13:14:47.947Z,5.80
2017-11-01T13:17:17.211Z,6.27
2017-11-01T13:19:46.094Z,4.87
2017-11-01T13:22:14.942Z,4.90
2017-11-01T13:24:43.961Z,4.67
2017-11-01T13:27:12.827Z,4.70
2017-11-01T13:29:41.691Z,4.87
2017-11-01T13:32:10.543Z,4.23
2017-11-01T13:34:39.504Z,4.07
2017-11-01T13:37:08.357Z,5.70
2017-11-01T13:39:37.291Z,4.80
2017-11-01T13:42:06.151Z,4.03
2017-11-01T13:44:35.030Z,4.90
2017-11-01T13:47:03.908Z,4.20
2017-11-01T13:49:32.803Z,3.72
2017-11-01T13:52:01.657Z,4.53
2017-11-01T13:54:30.512Z,5.12
2017-11-01T13:56:59.386Z,5.27
2017-11-01T13:59:28.239Z,3.90
2017-11-01T14:01:57.237Z,3.53
2017-11-01T14:04:26.111Z,4.03
2017-11-01T14:06:54.986Z,3.70
2017-11-01T14:09:23.836Z,4.10
2017-11-01T14:11:52.731Z,3.53
2017-11-01T14:14:21.582Z,3.87
2017-11-01T14:16:50.491Z,3.40
2017-11-01T14:19:19.337Z,2.90
2017-11-01T14:21:48.202Z,3.27
2017-11-01T14:24:17.052Z,3.60
2017-11-01T14:26:45.924Z,3.47
2017-11-01T14:29:14.798Z,2.53
2017-11-01T14:31:43.678Z,2.30
2017-11-01T14:34:12.534Z,5.83
2017-11-01T14:36:41.415Z,2.93
2017-11-01T14:39:10.330Z,2.53
2017-11-01T14:41:39.194Z,2.90
2017-11-01T14:44:08.056Z,2.63
2017-11-01T14:46:36.957Z,2.60
2017-11-01T14:49:05.832Z,2.73
2017-11-01T14:51:34.750Z,2.67
2017-11-01T14:54:03.637Z,4.10
2017-11-01T14:56:32.479Z,2.90
2017-11-01T14:59:01.359Z,2.43
2017-11-01T15:01:30.210Z,2.80
2017-11-01T15:03:59.099Z,2.57
2017-11-01T15:06:27.952Z,2.93
2017-11-01T15:08:56.848Z,4.00
2017-11-01T15:11:25.939Z,3.80
2017-11-01T15:13:54.829Z,3.00
2017-11-01T15:16:23.674Z,32.40
2017-11-01T15:18:52.557Z,11.57
2017-11-01T15:21:21.418Z,4.23
2017-11-01T15:23:50.291Z,2.43
2017-11-01T15:26:19.133Z,2.80
2017-11-01T15:28:47.988Z,3.63
2017-11-01T15:31:16.841Z,2.30
2017-11-01T15:33:45.722Z,2.67
2017-11-01T15:36:14.573Z,2.30
2017-11-01T15:38:43.455Z,2.50
2017-11-01T15:41:12.321Z,2.40
2017-11-01T15:43:41.244Z,2.40
2017-11-01T15:46:10.103Z,2.80
2017-11-01T15:48:38.977Z,2.37
2017-11-01T15:51:07.842Z,2.13
2017-11-01T15:53:36.723Z,2.70
2017-11-01T15:56:05.584Z,2.60
2017-11-01T15:58:34.535Z,3.30
2017-11-01T16:01:03.398Z,11.37
2017-11-01T16:03:32.273Z,18.83
2017-11-01T16:06:01.143Z,16.63
2017-11-01T16:08:29.998Z,6.60
2017-11-01T16:10:58.874Z,4.00
2017-11-01T16:13:27.735Z,5.03
2017-11-01T16:15:56.659Z,4.90
2017-11-01T16:18:25.501Z,5.33
2017-11-01T16:20:54.580Z,3.67
2017-11-01T16:23:23.432Z,3.57
2017-11-01T16:25:52.373Z,3.70
2017-11-01T16:28:21.231Z,4.33
2017-11-01T16:30:50.158Z,3.97
2017-11-01T16:33:19.021Z,3.83
2017-11-01T16:35:47.946Z,3.80
2017-11-01T16:38:16.820Z,3.83
2017-11-01T16:40:45.715Z,4.70
2017-11-01T16:43:14.606Z,4.20
2017-11-01T16:45:43.471Z,4.17
2017-11-01T16:48:12.367Z,4.07
2017-11-01T16:50:41.277Z,4.00
2017-11-01T16:53:10.131Z,3.47
2017-11-01T16:55:39.039Z,4.80
2017-11-01T16:58:07.942Z,5.20
2017-11-01T17:00:36.822Z,4.50
2017-11-01T17:03:05.684Z,5.10
2017-11-01T17:05:34.558Z,3.97
2017-11-01T17:08:03.410Z,3.90
2017-11-01T17:10:32.269Z,4.50
2017-11-01T17:13:01.187Z,5.27
2017-11-01T17:15:30.032Z,5.07
2017-11-01T17:17:58.918Z,5.00
2017-11-01T17:20:27.774Z,3.80
2017-11-01T17:22:56.649Z,10.40
2017-11-01T17:25:25.514Z,45.60
2017-11-01T17:27:54.399Z,35.13
2017-11-01T17:30:23.250Z,6.93
2017-11-01T17:32:52.137Z,4.60
2017-11-01T17:35:20.987Z,5.23
2017-11-01T17:37:49.880Z,5.73
2017-11-01T17:40:18.732Z,5.67
2017-11-01T17:42:47.836Z,5.50
2017-11-01T17:45:16.721Z,5.40
2017-11-01T17:47:45.587Z,5.27
2017-11-01T17:50:14.496Z,7.10
2017-11-01T17:52:43.367Z,6.60
2017-11-01T17:55:12.228Z,7.20
2017-11-01T17:57:41.099Z,6.17
2017-11-01T18:00:10.054Z,6.60
2017-11-01T18:02:38.944Z,5.97
2017-11-01T18:05:07.788Z,6.33
2017-11-01T18:07:36.661Z,6.63
2017-11-01T18:10:05.612Z,6.10
2017-11-01T18:12:34.491Z,6.60
2017-11-01T18:15:03.386Z,5.70
2017-11-01T18:17:33.118Z,6.40
2017-11-01T18:20:02.008Z,6.63
2017-11-01T18:22:30.855Z,7.80
2017-11-01T18:24:59.733Z,9.47
2017-11-01T18:27:28.610Z,7.50
2017-11-01T18:29:57.478Z,6.43
2017-11-01T18:32:26.345Z,6.43
2017-11-01T18:34:55.227Z,5.83
2017-11-01T18:37:24.078Z,5.50
2017-11-01T18:39:52.944Z,6.03
2017-11-01T18:42:21.804Z,5.77
2017-11-01T18:44:50.711Z,6.53
2017-11-01T18:47:19.593Z,7.03
2017-11-01T18:49:48.470Z,6.53
2017-11-01T18:52:17.364Z,6.47
2017-11-01T18:54:46.243Z,6.43
2017-11-01T18:57:15.098Z,7.17
2017-11-01T18:59:43.976Z,6.17
2017-11-01T19:02:12.825Z,7.50
2017-11-01T19:04:41.695Z,8.50
2017-11-01T19:09:45.866Z,9.37
2017-11-01T19:12:14.746Z,13.17
2017-11-01T19:14:43.623Z,10.00
2017-11-01T19:17:12.481Z,7.83
2017-11-01T19:19:41.355Z,7.93
2017-11-01T19:22:10.203Z,9.60
2017-11-01T19:24:39.105Z,8.33
2017-11-01T19:27:07.962Z,9.80
2017-11-01T19:29:36.819Z,8.60
2017-11-01T19:32:05.701Z,7.77
2017-11-01T19:34:34.585Z,8.10
2017-11-01T19:37:03.468Z,7.70
2017-11-01T19:39:32.314Z,8.17
2017-11-01T19:42:01.190Z,7.83
2017-11-01T19:44:30.064Z,7.60
2017-11-01T19:46:58.999Z,9.50
2017-11-01T19:49:27.858Z,9.13
2017-11-01T19:51:56.733Z,11.80
2017-11-01T19:54:25.596Z,10.03
2017-11-01T19:56:54.463Z,8.10
2017-11-01T19:59:23.326Z,9.07
2017-11-01T20:01:52.203Z,8.70
2017-11-01T20:04:21.053Z,7.07
2017-11-01T20:06:49.938Z,7.60
2017-11-01T20:09:18.797Z,7.50
2017-11-01T20:11:47.754Z,9.80
2017-11-01T20:14:16.632Z,7.90
2017-11-01T20:16:45.498Z,9.13
2017-11-01T20:19:14.371Z,7.87
2017-11-01T20:21:43.243Z,9.53
2017-11-01T20:24:12.123Z,10.97
2017-11-01T20:26:41.000Z,8.97
2017-11-01T20:29:09.875Z,8.30
2017-11-01T20:31:38.762Z,9.80
2017-11-01T20:34:07.656Z,7.60
2017-11-01T20:36:36.541Z,6.80
2017-11-01T20:39:05.402Z,6.80
2017-11-01T20:41:34.269Z,6.33
2017-11-01T20:44:03.157Z,6.80
2017-11-01T20:46:32.018Z,6.53
2017-11-01T20:49:01.007Z,7.63
2017-11-01T20:51:29.849Z,8.00
2017-11-01T20:53:58.760Z,7.80
2017-11-01T20:56:27.751Z,7.83
2017-11-01T20:58:56.623Z,7.53
2017-11-01T21:01:25.480Z,7.40
2017-11-01T21:03:54.367Z,6.80
2017-11-01T21:06:23.210Z,7.37
2017-11-01T21:08:52.106Z,5.80
2017-11-01T21:11:20.959Z,6.47
2017-11-01T21:13:49.835Z,6.27
2017-11-01T21:16:18.682Z,6.80
2017-11-01T21:18:47.584Z,5.40
2017-11-01T21:21:16.455Z,5.40
2017-11-01T21:23:45.343Z,5.93
2017-11-01T21:26:14.202Z,5.33
2017-11-01T21:28:43.130Z,5.50
2017-11-01T21:31:11.992Z,5.90
2017-11-01T21:33:40.863Z,5.87
2017-11-01T21:36:09.723Z,5.60
2017-11-01T21:38:38.628Z,9.90
2017-11-01T21:41:07.518Z,13.70
2017-11-01T21:43:36.444Z,8.30
2017-11-01T21:46:05.310Z,5.90
2017-11-01T21:48:34.206Z,5.90
2017-11-01T21:51:03.074Z,5.57
2017-11-01T21:53:31.934Z,5.77
2017-11-01T21:56:00.824Z,5.93
2017-11-01T21:58:29.699Z,6.13
2017-11-01T22:00:58.559Z,5.77
2017-11-01T22:03:27.427Z,7.00
2017-11-01T22:05:56.295Z,6.40
2017-11-01T22:08:25.151Z,9.80
2017-11-01T22:10:54.023Z,9.00
2017-11-01T22:13:22.886Z,6.93
2017-11-01T22:15:51.762Z,6.83
2017-11-01T22:18:20.604Z,7.30
2017-11-01T22:20:49.480Z,6.13
2017-11-01T22:23:18.337Z,7.53
2017-11-01T22:25:47.204Z,7.57
2017-11-01T22:28:16.064Z,6.90
2017-11-01T22:30:44.934Z,8.30
2017-11-01T22:33:13.816Z,8.10
2017-11-01T22:35:42.714Z,6.93
2017-11-01T22:38:11.575Z,8.30
2017-11-01T22:40:40.451Z,7.80
2017-11-01T22:43:09.320Z,7.40
2017-11-01T22:45:38.191Z,7.07
2017-11-01T22:48:07.036Z,6.90
2017-11-01T22:50:35.894Z,7.20
2017-11-01T22:53:04.740Z,6.17
2017-11-01T22:55:33.598Z,6.77
2017-11-01T22:58:02.466Z,6.53
2017-11-01T23:00:31.306Z,6.33
2017-11-01T23:03:00.195Z,8.10
2017-11-01T23:05:29.052Z,7.13
2017-11-01T23:07:57.923Z,7.33
2017-11-01T23:10:26.839Z,7.53
2017-11-01T23:12:55.753Z,7.60
2017-11-01T23:15:24.646Z,6.97
2017-11-01T23:17:53.536Z,7.50
2017-11-01T23:20:22.444Z,7.47
2017-11-01T23:22:51.465Z,7.90
2017-11-01T23:25:20.330Z,7.80
2017-11-01T23:27:49.211Z,7.23
2017-11-01T23:30:18.068Z,7.23
2017-11-01T23:32:46.933Z,7.50
2017-11-01T23:35:15.807Z,7.60
2017-11-01T23:37:44.683Z,8.20
2017-11-01T23:40:13.546Z,7.60
2017-11-01T23:42:42.420Z,9.20
2017-11-01T23:45:11.278Z,8.57
2017-11-01T23:47:40.162Z,7.80
2017-11-01T23:50:09.021Z,6.17
2017-11-01T23:52:37.904Z,5.93
2017-11-01T23:55:06.760Z,5.43
2017-11-01T23:57:35.638Z,4.97
